LPCS Informações do Aeroporto

Informações da Pista
Pista 17 Comprimento 3904 ft Largura 98 ft
Elevação 326 ft Limite 0 ft Heading 164
Pista 35 Comprimento 3904 ft Largura 98 ft
Elevação 287 ft Limite 0 ft Heading 344
Frequências do Aeroporto
Tipo GND Nome GND Frequência 121.825 MHZ
Tipo TWR Nome TWR Frequência 120.3 MHZ
Navaids do Aeroporto
Tipo NDB Nome Cascais Frequência 359 KHZ
Tipo VOR-DME Nome Cascais Frequência 114300 KHZ
Informações meteorológicas do aeroporto e NOTAM
ADDS - METARS form results

(1208 UTC 22 August 2019)
Data provider http://aviationweather.gov/metar/data/
 
METAR text: LPCS 221200Z 20007KT 150V230 CAVOK 29/13 Q1017
Conditions at: LPCS (CASCAIS , PT) observed 1200 UTC 22 August 2019
Temperature: 29.0°C (84°F)
Dewpoint: 13.0°C (55°F) [RH = 37%]
Pressure (altimeter): 30.03 inches Hg (1017.0 mb)
Winds: from the SSW (200 degrees) at 8 MPH (7 knots; 3.6 m/s)
Visibility: 6 or more miles (10+ km)
Ceiling: ceiling and visibility are OK
Clouds: unknown
Weather: no significant weather observed at this time

METAR text: LPCS 221130Z 17007KT 130V200 CAVOK 28/13 Q1017
Conditions at: LPCS (CASCAIS , PT) observed 1130 UTC 22 August 2019
Temperature: 28.0°C (82°F)
Dewpoint: 13.0°C (55°F) [RH = 40%]
Pressure (altimeter): 30.03 inches Hg (1017.0 mb)
Winds: from the S (170 degrees) at 8 MPH (7 knots; 3.6 m/s)
Visibility: 6 or more miles (10+ km)
Ceiling: ceiling and visibility are OK
Clouds: unknown
Weather: no significant weather observed at this time

Forecast for: LPCS (CASCAIS , PT)
Text: TAF LPCS 221100Z 2212/2221 16008KT CAVOK
Forecast period: 1200 to 2100 UTC 22 August 2019
Forecast type: FROM: standard forecast or significant change
Winds: from the SSE (160 degrees) at 9 MPH (8 knots; 4.1 m/s)
Visibility: 6 or more miles 10+ km)
Ceiling: unknown
Clouds: missing
Weather: NSW  (no significant weather)
Text: BECMG 2212/2214 24008KT
Forecast period: 1200 to 1500 UTC 22 August 2019
Forecast type: BECOMING: Conditions expected to become as follows by 1400 UTC 22 August 2019
Winds: from the WSW (240 degrees) at 9 MPH (8 knots; 4.1 m/s)
Visibility: 6 or more miles 10+ km)
Ceiling: unknown
Clouds: missing
Weather: NSW  (no significant weather)
Text: BECMG 2215/2217 32012KT
Forecast period: 1500 to 1700 UTC 22 August 2019
Forecast type: BECOMING: Conditions expected to become as follows by 1700 UTC 22 August 2019
Winds: from the NW (320 degrees) at 14 MPH (12 knots; 6.2 m/s)
Visibility: 6 or more miles 10+ km)
Ceiling: unknown
Clouds: missing
Weather: NSW  (no significant weather)
Text: BECMG 2217/2220 35015KT
Forecast period: 1700 to 2100 UTC 22 August 2019
Forecast type: BECOMING: Conditions expected to become as follows by 2000 UTC 22 August 2019
Winds: from the N (350 degrees) at 17 MPH (15 knots; 7.7 m/s)
Visibility: 6 or more miles 10+ km)
Ceiling: unknown
Clouds: missing
Weather: NSW  (no significant weather)